Impacts TAF Board INFO
FOR SITUATIONAL AWARENESS. NOT TO BE USED FOR FLIGHT PLANNING PURPOSES.
IDs:

KMCO - Orlando Intl, FL, US

Issued at 0856 UTC 23 May 2018
Updated at 1111 UTC 23 May 2018
Potential Impact None Slight Moderate High
Time1053Z 23/12Z 23/13Z 23/14Z 23/15Z 23/16Z 23/17Z 23/18Z 23/19Z 23/20Z 23/21Z 23/22Z 23/23Z 24/00Z>>
Type OBS PRVL PRVL PRVL PRVL PRVL PRVL PRVL PRVL
  [TEMP]  
PRVL
  [TEMP]  
PRVL
  [TEMP]  
PRVL PRVL PRVL
VIS 9 >6 >6 >6 >6 >6 >6 >6 >6
  [3]  
>6
  [3]  
>6
  [3]  
>6 >6 >6
CIG -- -- -- 250 250 250 250 35 35
  [25]  
35
  [25]  
35
  [25]  
35 35 150
Cover FEW SKC SKC BKN BKN BKN BKN BKN BKN
  [BKN]  
BKN
  [BKN]  
BKN
  [BKN]  
BKN BKN BKN
FltCat VFR VFR VFR VFR VFR VFR VFR VFR VFR
  [MVFR]  
VFR
  [MVFR]  
VFR
  [MVFR]  
VFR VFR VFR
WX -- -- -- -- -- -- -- VCSH VCSH
  [SHRA]  
VCSH
  [SHRA]  
VCSH
  [SHRA]  
VCSH VCSH --
WDir 80 90 90 130 130 130 130 100 100
[100]
100
[100]
100
[100]
100 100 100
WSpd 3 3 3 6 6 6 6 9 9
  [9]  
9
  [9]  
9
  [9]  
9 9 6
WGst -- -- -- -- -- -- -- -- --
  [--]  
--
  [--]  
--
  [--]  
-- -- --

Raw TAF
KMCO 230856Z 2309/2412 09003KT P6SM SKC
  FM231400 13006KT P6SM SCT025 SCT100 BKN250
  FM231800 10009KT P6SM VCSH BKN035 BKN050
  TEMPO 2319/2322 3SM SHRA BKN025
  FM240000 10006KT P6SM FEW045 SCT080 BKN150


Raw METAR
KMCO 231053Z 08003KT 9SM FEW100 21/21 A3011 RMK AO2 SLP193 T02060206 $
KMCO 230953Z 00000KT 10SM FEW020 FEW100 21/21 A3009 RMK AO2 SLP186 T02060206 $
KMCO 230853Z 08003KT 10SM CLR 21/21 A3008 RMK AO2 SLP184 T02110206 55003 $

METAR Board
Radar Display
Forecast Discussion

FOR SITUATIONAL AWARENESS. NOT TO BE USED FOR FLIGHT PLANNING PURPOSES.